createdAt,value
2018-09-06T00:00:41.397Z,71.53
2018-09-06T00:03:09.802Z,82.43
2018-09-06T00:05:38.253Z,77.00
2018-09-06T00:08:07.030Z,80.83
2018-09-06T00:10:35.497Z,88.50
2018-09-06T00:13:04.002Z,82.80
2018-09-06T00:15:32.405Z,85.77
2018-09-06T00:18:00.809Z,82.60
2018-09-06T00:20:29.205Z,84.77
2018-09-06T00:22:57.788Z,90.50
2018-09-06T00:25:26.383Z,83.23
2018-09-06T00:27:54.803Z,82.63
2018-09-06T00:30:23.254Z,79.90
2018-09-06T00:32:51.814Z,78.37
2018-09-06T00:35:20.220Z,76.57
2018-09-06T00:37:48.625Z,77.57
2018-09-06T00:40:17.367Z,83.47
2018-09-06T00:42:45.796Z,75.60
2018-09-06T00:45:14.222Z,81.03
2018-09-06T00:47:42.641Z,74.70
2018-09-06T00:50:16.323Z,74.13
2018-09-06T00:52:46.141Z,81.60
2018-09-06T00:55:14.525Z,75.03
2018-09-06T00:57:43.002Z,81.77
2018-09-06T01:00:11.455Z,79.10
2018-09-06T01:02:40.108Z,82.03
2018-09-06T01:05:08.533Z,79.10
2018-09-06T01:07:36.985Z,88.13
2018-09-06T01:10:05.856Z,79.63
2018-09-06T01:12:34.248Z,85.10
2018-09-06T01:15:02.739Z,82.40
2018-09-06T01:17:31.354Z,86.27
2018-09-06T01:19:59.853Z,80.77
2018-09-06T01:22:28.328Z,89.13
2018-09-06T01:24:57.291Z,84.93
2018-09-06T01:27:25.705Z,80.23
2018-09-06T01:29:54.092Z,84.93
2018-09-06T01:32:22.743Z,80.77
2018-09-06T01:34:51.128Z,84.83
2018-09-06T01:37:19.528Z,88.83
2018-09-06T01:39:47.934Z,87.80
2018-09-06T01:42:16.317Z,99.10
2018-09-06T01:44:44.724Z,95.30
2018-09-06T01:47:13.116Z,102.37
2018-09-06T01:49:41.532Z,109.50
2018-09-06T01:52:09.944Z,106.47
2018-09-06T01:54:38.358Z,109.37
2018-09-06T01:57:06.740Z,117.80
2018-09-06T01:59:36.009Z,108.93
2018-09-06T02:02:04.688Z,103.67
2018-09-06T02:04:33.131Z,97.23
2018-09-06T02:07:01.618Z,118.50
2018-09-06T02:09:30.266Z,104.40
2018-09-06T02:11:58.668Z,104.43
2018-09-06T02:14:27.079Z,106.07
2018-09-06T02:16:55.697Z,123.77
2018-09-06T02:19:24.093Z,136.47
2018-09-06T02:21:52.526Z,128.27
2018-09-06T02:24:21.196Z,143.00
2018-09-06T02:26:49.533Z,130.57
2018-09-06T02:29:17.932Z,121.00
2018-09-06T02:31:46.372Z,127.13
2018-09-06T02:34:14.796Z,118.10
2018-09-06T02:36:43.174Z,110.60
2018-09-06T02:39:12.134Z,121.00
2018-09-06T02:41:40.542Z,123.87
2018-09-06T02:44:09.364Z,135.13
2018-09-06T02:46:37.870Z,156.57
2018-09-06T02:49:06.317Z,154.67
2018-09-06T02:51:34.804Z,157.77
2018-09-06T02:54:03.323Z,162.50
2018-09-06T02:56:31.633Z,151.30
2018-09-06T02:59:00.031Z,141.17
2018-09-06T03:01:28.436Z,150.33
2018-09-06T03:03:56.896Z,146.80
2018-09-06T03:06:25.294Z,140.20
2018-09-06T03:08:53.689Z,128.10
2018-09-06T03:11:24.441Z,131.70
2018-09-06T03:13:53.316Z,132.00
2018-09-06T03:16:21.779Z,141.57
2018-09-06T03:18:50.252Z,132.53
2018-09-06T03:21:19.050Z,137.90
2018-09-06T03:23:47.429Z,141.33
2018-09-06T03:26:18.060Z,136.67
2018-09-06T03:28:48.149Z,142.37
2018-09-06T03:31:16.737Z,138.67
2018-09-06T03:33:45.936Z,148.03
2018-09-06T03:36:14.813Z,134.70
2018-09-06T03:38:43.449Z,159.63
2018-09-06T03:41:11.854Z,137.73
2018-09-06T03:43:40.292Z,157.43
2018-09-06T03:46:09.474Z,157.63
2018-09-06T03:48:38.048Z,157.27
2018-09-06T03:51:07.039Z,148.20
2018-09-06T03:53:35.813Z,148.37
2018-09-06T03:56:04.320Z,144.20
2018-09-06T03:58:32.778Z,157.90
2018-09-06T04:01:01.231Z,151.57
2018-09-06T04:03:29.614Z,149.73
2018-09-06T04:05:58.012Z,153.77
2018-09-06T04:08:26.428Z,148.20
2018-09-06T04:10:54.982Z,131.50
2018-09-06T04:13:23.380Z,134.00
2018-09-06T04:15:51.770Z,127.40
2018-09-06T04:18:20.246Z,124.60
2018-09-06T04:20:48.619Z,128.77
2018-09-06T04:23:17.051Z,126.30
2018-09-06T04:25:45.500Z,130.83
2018-09-06T04:28:14.271Z,130.33
2018-09-06T04:30:42.961Z,134.67
2018-09-06T04:33:11.392Z,135.40
2018-09-06T04:35:39.793Z,152.30
2018-09-06T04:38:08.396Z,175.37
2018-09-06T04:40:36.836Z,160.07
2018-09-06T04:43:05.268Z,138.57
2018-09-06T04:45:33.689Z,128.77
2018-09-06T04:48:02.137Z,132.83
2018-09-06T04:50:30.556Z,137.00
2018-09-06T04:52:59.160Z,139.07
2018-09-06T04:55:27.545Z,158.77
2018-09-06T04:57:55.942Z,160.17
2018-09-06T05:00:24.605Z,156.30
2018-09-06T05:02:52.976Z,156.00
2018-09-06T05:05:21.380Z,151.43
2018-09-06T05:07:50.047Z,174.07
2018-09-06T05:10:18.506Z,166.80
2018-09-06T05:12:46.931Z,180.10
2018-09-06T05:15:15.589Z,203.03
2018-09-06T05:17:43.989Z,197.87
2018-09-06T05:20:12.420Z,186.63
2018-09-06T05:22:40.827Z,157.13
2018-09-06T05:25:09.265Z,149.50
2018-09-06T05:27:37.687Z,138.70
2018-09-06T05:30:06.360Z,139.73
2018-09-06T05:32:34.782Z,147.73
2018-09-06T05:35:03.433Z,155.70
2018-09-06T05:37:31.828Z,162.03
2018-09-06T05:40:00.248Z,140.87
2018-09-06T05:42:28.660Z,158.47
2018-09-06T05:44:57.045Z,160.73
2018-09-06T05:47:25.534Z,170.73
2018-09-06T05:49:53.955Z,152.20
2018-09-06T05:52:22.707Z,166.80
2018-09-06T05:54:51.122Z,161.13
2018-09-06T05:57:19.533Z,130.57
2018-09-06T05:59:52.264Z,133.60
2018-09-06T06:02:20.645Z,140.83
2018-09-06T06:04:49.044Z,130.60
2018-09-06T06:07:17.661Z,117.30
2018-09-06T06:09:46.122Z,112.50
2018-09-06T06:12:15.065Z,115.33
2018-09-06T06:14:43.626Z,121.37
2018-09-06T06:17:12.011Z,138.00
2018-09-06T06:19:40.457Z,130.63
2018-09-06T06:22:08.844Z,130.10
2018-09-06T06:24:37.242Z,131.83
2018-09-06T06:27:05.683Z,127.80
2018-09-06T06:29:34.404Z,126.03
2018-09-06T06:32:02.854Z,131.30
2018-09-06T06:34:31.322Z,125.37
2018-09-06T06:36:59.728Z,129.10
2018-09-06T06:39:28.168Z,134.80
2018-09-06T06:41:56.575Z,138.17
2018-09-06T06:44:25.187Z,125.77
2018-09-06T06:46:53.583Z,121.53
2018-09-06T06:49:22.070Z,128.60
2018-09-06T06:51:50.727Z,126.03
2018-09-06T06:54:19.158Z,125.93
2018-09-06T06:56:47.680Z,126.67
2018-09-06T06:59:16.265Z,120.40
2018-09-06T07:01:44.681Z,134.27
2018-09-06T07:04:13.096Z,127.07
2018-09-06T07:06:41.661Z,142.83
2018-09-06T07:09:10.768Z,130.97
2018-09-06T07:11:39.184Z,128.73
2018-09-06T07:14:07.862Z,130.87
2018-09-06T07:16:36.265Z,136.80
2018-09-06T07:19:04.780Z,138.13
2018-09-06T07:21:33.245Z,125.47
2018-09-06T07:24:01.648Z,129.07
2018-09-06T07:26:30.058Z,119.73
2018-09-06T07:28:58.704Z,123.53
2018-09-06T07:31:27.128Z,125.60
2018-09-06T07:33:55.809Z,116.30
2018-09-06T07:36:24.200Z,120.27
2018-09-06T07:38:52.600Z,121.40
2018-09-06T07:41:21.047Z,122.90
2018-09-06T07:43:49.409Z,117.90
2018-09-06T07:46:17.888Z,121.10
2018-09-06T07:48:46.288Z,144.67
2018-09-06T07:51:14.697Z,114.67
2018-09-06T07:53:43.127Z,115.07
2018-09-06T07:56:11.531Z,119.57
2018-09-06T07:58:39.934Z,122.10
2018-09-06T08:01:08.582Z,101.60
2018-09-06T08:03:37.089Z,112.33
2018-09-06T08:06:05.532Z,109.90
2018-09-06T08:08:34.112Z,111.67
2018-09-06T08:11:02.533Z,121.80
2018-09-06T08:13:30.960Z,107.60
2018-09-06T08:15:59.371Z,103.50
2018-09-06T08:18:27.761Z,106.70
2018-09-06T08:20:56.226Z,103.90
2018-09-06T08:23:24.660Z,111.70
2018-09-06T08:25:53.104Z,107.23
2018-09-06T08:28:21.768Z,105.27
2018-09-06T08:30:50.241Z,103.17
2018-09-06T08:33:18.601Z,104.63
2018-09-06T08:35:47.033Z,100.03
2018-09-06T08:38:15.433Z,101.00
2018-09-06T08:40:44.029Z,99.30
2018-09-06T08:43:12.448Z,100.23
2018-09-06T08:45:41.101Z,96.93
2018-09-06T08:48:09.560Z,100.30
2018-09-06T08:50:38.770Z,101.53
2018-09-06T08:53:07.252Z,98.73
2018-09-06T08:55:35.640Z,104.10
2018-09-06T08:58:04.049Z,107.00
2018-09-06T09:00:36.715Z,95.57
2018-09-06T09:03:05.714Z,94.67
2018-09-06T09:05:34.068Z,95.67
2018-09-06T09:08:02.532Z,96.23
2018-09-06T09:10:31.128Z,91.17
2018-09-06T09:12:59.571Z,82.33
2018-09-06T09:15:28.136Z,82.77
2018-09-06T09:17:56.613Z,79.80
2018-09-06T09:20:25.045Z,76.73
2018-09-06T09:22:56.177Z,81.50
2018-09-06T09:25:24.697Z,77.20
2018-09-06T09:27:53.296Z,80.60
2018-09-06T09:30:21.715Z,77.03
2018-09-06T09:32:50.149Z,77.83
2018-09-06T09:35:18.931Z,81.67
2018-09-06T09:37:47.384Z,83.27
2018-09-06T09:40:15.813Z,81.90
2018-09-06T09:42:44.475Z,73.80
2018-09-06T09:45:12.915Z,74.20
2018-09-06T09:47:41.361Z,75.57
2018-09-06T09:50:09.981Z,76.27
2018-09-06T09:52:38.492Z,78.43
2018-09-06T09:55:07.052Z,74.67
2018-09-06T09:57:35.591Z,75.83
2018-09-06T10:00:04.190Z,79.70
2018-09-06T10:03:35.860Z,84.17
2018-09-06T10:06:09.565Z,76.70
2018-09-06T10:08:43.614Z,69.57
2018-09-06T10:11:12.036Z,60.60
2018-09-06T10:13:40.440Z,64.37
2018-09-06T10:16:08.908Z,62.83
2018-09-06T10:18:37.424Z,62.77
2018-09-06T10:21:05.952Z,64.20
2018-09-06T10:23:34.609Z,63.23
2018-09-06T10:26:03.024Z,62.37
2018-09-06T10:28:31.470Z,64.23
2018-09-06T10:31:00.160Z,62.73
2018-09-06T10:33:28.561Z,56.10
2018-09-06T10:35:57.008Z,58.57
2018-09-06T10:38:25.697Z,58.03
2018-09-06T10:40:54.109Z,54.50
2018-09-06T10:43:22.556Z,55.63
2018-09-06T10:45:51.213Z,51.90
2018-09-06T10:48:19.698Z,55.53
2018-09-06T10:50:48.187Z,55.47
2018-09-06T10:53:17.520Z,59.13
2018-09-06T10:55:45.949Z,55.67
2018-09-06T10:58:14.323Z,50.07
2018-09-06T11:00:43.561Z,59.07
2018-09-06T11:03:12.113Z,48.27
2018-09-06T11:05:41.417Z,49.20
2018-09-06T11:08:10.561Z,42.17
2018-09-06T11:10:44.080Z,47.10
2018-09-06T11:13:12.528Z,43.20
2018-09-06T11:15:41.268Z,46.50
2018-09-06T11:18:10.017Z,43.63
2018-09-06T11:20:38.425Z,45.80
2018-09-06T11:23:06.840Z,39.87
2018-09-06T11:25:35.431Z,39.17
2018-09-06T11:28:03.817Z,36.77
2018-09-06T11:30:32.225Z,40.43
2018-09-06T11:33:00.850Z,35.70
2018-09-06T11:35:29.253Z,35.60
2018-09-06T11:38:04.160Z,33.90
2018-09-06T11:40:32.840Z,33.10
2018-09-06T11:43:01.208Z,34.00
2018-09-06T11:45:29.792Z,34.07
2018-09-06T11:47:58.303Z,34.57
2018-09-06T11:50:26.726Z,33.13
2018-09-06T11:52:55.161Z,35.13
2018-09-06T11:55:23.558Z,34.80
2018-09-06T11:57:52.008Z,36.40
2018-09-06T12:00:20.481Z,36.83
2018-09-06T12:02:49.077Z,33.90
2018-09-06T12:05:17.482Z,38.30
2018-09-06T12:07:45.925Z,32.90
2018-09-06T12:10:14.369Z,33.53
2018-09-06T12:12:42.792Z,34.90
2018-09-06T12:15:11.395Z,37.37
2018-09-06T12:17:39.816Z,40.70
2018-09-06T12:20:08.228Z,41.53
2018-09-06T12:22:36.697Z,44.33
2018-09-06T12:25:05.493Z,43.37
2018-09-06T12:27:34.217Z,42.07
2018-09-06T12:30:02.660Z,38.57
2018-09-06T12:32:31.104Z,43.63
2018-09-06T12:35:00.075Z,41.93
2018-09-06T12:37:28.481Z,39.83
2018-09-06T12:39:57.181Z,47.67
2018-09-06T12:42:25.593Z,45.73
2018-09-06T12:44:54.048Z,46.97
2018-09-06T12:47:22.607Z,48.30
2018-09-06T12:49:51.144Z,47.60
2018-09-06T12:52:19.624Z,50.03
2018-09-06T12:54:48.068Z,54.07
2018-09-06T12:57:16.550Z,54.00
2018-09-06T12:59:45.060Z,54.73
2018-09-06T13:02:13.524Z,57.10
2018-09-06T13:04:42.243Z,54.23
2018-09-06T13:07:10.781Z,58.90
2018-09-06T13:09:39.207Z,63.07
2018-09-06T13:12:07.684Z,63.40
2018-09-06T13:14:36.064Z,59.97
2018-09-06T13:17:04.529Z,61.73
2018-09-06T13:19:33.096Z,62.00
2018-09-06T13:22:01.555Z,66.43
2018-09-06T13:24:29.960Z,68.27
2018-09-06T13:26:58.389Z,72.17
2018-09-06T13:29:26.892Z,77.23
2018-09-06T13:31:55.296Z,79.63
2018-09-06T13:34:23.852Z,68.20
2018-09-06T13:36:52.259Z,70.00
2018-09-06T13:39:20.735Z,69.30
2018-09-06T13:41:49.177Z,68.60
2018-09-06T13:44:17.586Z,74.67
2018-09-06T13:46:46.028Z,69.93
2018-09-06T13:49:14.408Z,72.23
2018-09-06T13:51:43.014Z,66.50
2018-09-06T13:54:11.427Z,69.23
2018-09-06T13:56:39.914Z,66.67
2018-09-06T13:59:08.373Z,64.00
2018-09-06T14:01:36.881Z,68.07
2018-09-06T14:04:05.319Z,68.73
2018-09-06T14:06:33.759Z,65.00
2018-09-06T14:09:02.173Z,65.13
2018-09-06T14:11:30.576Z,61.03
2018-09-06T14:13:59.002Z,53.13
2018-09-06T14:16:27.630Z,55.70
2018-09-06T14:18:56.006Z,52.27
2018-09-06T14:21:24.428Z,52.53
2018-09-06T14:23:53.041Z,50.80
2018-09-06T14:26:21.436Z,49.83
2018-09-06T14:28:49.868Z,43.73
2018-09-06T14:31:18.326Z,48.37
2018-09-06T14:33:46.740Z,46.07
2018-09-06T14:36:15.200Z,48.13
2018-09-06T14:38:43.735Z,44.97
2018-09-06T14:41:12.242Z,44.50
2018-09-06T14:43:40.664Z,46.43
2018-09-06T14:46:09.097Z,46.90
2018-09-06T14:48:37.930Z,53.03
2018-09-06T14:51:06.317Z,43.17
2018-09-06T14:53:34.825Z,41.67
2018-09-06T14:56:03.253Z,44.33
2018-09-06T14:58:31.657Z,43.50
2018-09-06T15:01:00.137Z,45.27
2018-09-06T15:03:28.589Z,42.37
2018-09-06T15:05:57.216Z,38.90
2018-09-06T15:08:25.626Z,42.23
2018-09-06T15:10:54.039Z,42.43
2018-09-06T15:13:22.523Z,42.30
2018-09-06T15:15:50.949Z,46.97
2018-09-06T15:18:19.373Z,37.93
2018-09-06T15:20:47.804Z,39.93
2018-09-06T15:23:16.216Z,34.93
2018-09-06T15:25:44.718Z,37.80
2018-09-06T15:28:13.672Z,40.87
2018-09-06T15:30:42.079Z,39.47
2018-09-06T15:33:10.504Z,40.63
2018-09-06T15:35:38.958Z,36.43
2018-09-06T15:38:07.748Z,40.20
2018-09-06T15:40:36.236Z,37.10
2018-09-06T15:43:04.680Z,43.93
2018-09-06T15:45:33.168Z,44.83
2018-09-06T15:48:01.624Z,41.93
2018-09-06T15:50:30.034Z,44.40
2018-09-06T15:52:58.649Z,44.83
2018-09-06T15:55:27.091Z,48.30
2018-09-06T15:57:55.504Z,50.10
2018-09-06T16:00:23.953Z,48.47
2018-09-06T16:02:52.409Z,47.40
2018-09-06T16:05:20.844Z,44.90
2018-09-06T16:07:49.244Z,51.93
2018-09-06T16:10:17.918Z,49.90
2018-09-06T16:12:46.345Z,52.13
2018-09-06T16:15:14.750Z,49.17
2018-09-06T16:17:43.177Z,55.13
2018-09-06T16:20:11.596Z,46.40
2018-09-06T16:22:40.056Z,43.83
2018-09-06T16:25:08.480Z,40.60
2018-09-06T16:27:37.036Z,38.60
2018-09-06T16:30:06.392Z,39.67
2018-09-06T16:32:34.801Z,38.67
2018-09-06T16:35:03.313Z,38.07
2018-09-06T16:37:31.773Z,36.00
2018-09-06T16:40:00.256Z,37.50
2018-09-06T16:42:28.846Z,35.07
2018-09-06T16:44:57.290Z,38.00
2018-09-06T16:47:26.442Z,36.53
2018-09-06T16:49:55.015Z,35.60
2018-09-06T16:52:23.478Z,25.80
2018-09-06T16:54:51.869Z,27.33
2018-09-06T16:57:20.289Z,27.23
2018-09-06T16:59:48.746Z,21.50
2018-09-06T17:02:17.208Z,17.40
2018-09-06T17:04:45.858Z,19.20
2018-09-06T17:07:14.530Z,18.40
2018-09-06T17:09:43.038Z,19.60
2018-09-06T17:12:11.490Z,17.30
2018-09-06T17:14:40.244Z,18.03
2018-09-06T17:17:08.984Z,18.27
2018-09-06T17:19:37.461Z,15.93
2018-09-06T17:22:06.161Z,16.03
2018-09-06T17:24:34.602Z,14.67
2018-09-06T17:27:05.705Z,19.60
2018-09-06T17:29:34.168Z,14.90
2018-09-06T17:32:02.877Z,16.80
2018-09-06T17:34:31.281Z,13.77
2018-09-06T17:36:59.801Z,14.23
2018-09-06T17:39:28.295Z,15.20
2018-09-06T17:41:56.702Z,15.00
2018-09-06T17:44:25.189Z,16.07
2018-09-06T17:46:53.725Z,18.13
2018-09-06T17:49:22.298Z,15.87
2018-09-06T17:51:50.735Z,15.60
2018-09-06T17:54:19.180Z,13.70
2018-09-06T17:56:47.767Z,14.53
2018-09-06T17:59:16.230Z,13.27
2018-09-06T18:01:44.674Z,15.40
2018-09-06T18:04:13.150Z,14.90
2018-09-06T18:06:41.632Z,13.07
2018-09-06T18:09:12.028Z,12.63
2018-09-06T18:11:41.213Z,12.47
2018-09-06T18:14:09.909Z,12.67
2018-09-06T18:16:38.393Z,13.60
2018-09-06T18:19:06.852Z,13.80
2018-09-06T18:21:35.276Z,12.50
2018-09-06T18:24:03.800Z,16.33
2018-09-06T18:26:32.339Z,15.77
2018-09-06T18:29:00.862Z,12.80
2018-09-06T18:31:29.456Z,11.67
2018-09-06T18:33:58.089Z,10.90
2018-09-06T18:36:26.579Z,12.60
2018-09-06T18:38:55.187Z,8.30
2018-09-06T18:41:23.581Z,10.63
2018-09-06T18:43:52.024Z,10.60
2018-09-06T18:46:20.642Z,10.40
2018-09-06T18:48:49.064Z,11.00
2018-09-06T18:51:17.828Z,11.27
2018-09-06T18:53:46.488Z,12.13
2018-09-06T18:56:15.014Z,10.57
2018-09-06T18:58:43.681Z,10.07
2018-09-06T19:01:12.087Z,11.57
2018-09-06T19:03:40.501Z,9.73
2018-09-06T19:06:09.172Z,10.17
2018-09-06T19:08:37.656Z,11.63
2018-09-06T19:11:06.249Z,10.57
2018-09-06T19:13:34.941Z,10.57
2018-09-06T19:16:03.494Z,13.90
2018-09-06T19:18:31.998Z,12.73
2018-09-06T19:21:00.433Z,10.13
2018-09-06T19:23:28.849Z,11.10
2018-09-06T19:25:57.293Z,16.20
2018-09-06T19:28:25.708Z,13.07
2018-09-06T19:30:54.220Z,10.87
2018-09-06T19:33:22.893Z,10.77
2018-09-06T19:35:51.320Z,13.23
2018-09-06T19:38:19.799Z,12.43
2018-09-06T19:40:48.626Z,13.50
2018-09-06T19:43:17.119Z,14.07
2018-09-06T19:45:45.544Z,13.97
2018-09-06T19:48:14.110Z,13.50
2018-09-06T19:50:42.525Z,12.20
2018-09-06T19:53:10.951Z,14.00
2018-09-06T19:55:39.380Z,16.20
2018-09-06T19:58:07.797Z,12.67
2018-09-06T20:00:36.278Z,14.43
2018-09-06T20:03:04.794Z,12.07
2018-09-06T20:05:34.204Z,15.93
2018-09-06T20:08:02.825Z,11.73
2018-09-06T20:10:31.291Z,12.73
2018-09-06T20:12:59.789Z,15.37
2018-09-06T20:15:28.239Z,16.03
2018-09-06T20:17:56.729Z,14.60
2018-09-06T20:20:25.148Z,16.80
2018-09-06T20:22:53.557Z,15.30
2018-09-06T20:25:22.032Z,14.23
2018-09-06T20:27:50.499Z,13.37
2018-09-06T20:30:18.933Z,17.13
2018-09-06T20:32:47.358Z,14.80
2018-09-06T20:35:15.930Z,14.60
2018-09-06T20:37:44.365Z,15.53
2018-09-06T20:40:12.820Z,15.47
2018-09-06T20:42:41.565Z,15.87
2018-09-06T20:45:10.012Z,16.63
2018-09-06T20:47:38.613Z,16.63
2018-09-06T20:50:07.108Z,17.40
2018-09-06T20:52:35.731Z,15.70
2018-09-06T20:55:04.272Z,15.80
2018-09-06T20:57:33.064Z,16.23
2018-09-06T21:00:02.160Z,17.37
2018-09-06T21:02:36.193Z,23.97
2018-09-06T21:05:04.901Z,23.83
2018-09-06T21:07:33.516Z,17.10
2018-09-06T21:10:02.504Z,16.80
2018-09-06T21:12:31.115Z,21.03
2018-09-06T21:14:59.788Z,18.70
2018-09-06T21:17:28.349Z,17.43
2018-09-06T21:19:56.944Z,19.67
2018-09-06T21:22:25.506Z,20.77
2018-09-06T21:24:53.935Z,19.00
2018-09-06T21:27:22.443Z,18.23
2018-09-06T21:29:50.929Z,23.73
2018-09-06T21:32:19.625Z,17.47
2018-09-06T21:34:48.115Z,17.80
2018-09-06T21:37:16.495Z,20.70
2018-09-06T21:39:45.082Z,19.00
2018-09-06T21:42:13.519Z,18.53
2018-09-06T21:44:41.919Z,19.20
2018-09-06T21:47:10.714Z,17.20
2018-09-06T21:49:39.413Z,21.27
2018-09-06T21:52:07.964Z,17.20
2018-09-06T21:54:36.390Z,19.03
2018-09-06T21:57:04.822Z,18.00
2018-09-06T21:59:33.237Z,18.10
2018-09-06T22:02:01.884Z,20.00
2018-09-06T22:04:30.315Z,17.60
2018-09-06T22:06:58.739Z,17.73
2018-09-06T22:09:27.251Z,19.90
2018-09-06T22:11:55.673Z,19.53
2018-09-06T22:14:24.128Z,20.77
2018-09-06T22:16:52.593Z,23.00
2018-09-06T22:19:21.004Z,24.00
2018-09-06T22:21:49.426Z,27.57
2018-09-06T22:24:17.836Z,26.77
2018-09-06T22:26:46.232Z,27.60
2018-09-06T22:29:14.633Z,23.70
2018-09-06T22:31:43.241Z,22.97
2018-09-06T22:34:11.648Z,24.60
2018-09-06T22:36:40.049Z,25.97
2018-09-06T22:39:09.384Z,25.30
2018-09-06T22:41:37.800Z,26.70
2018-09-06T22:44:06.650Z,24.30
2018-09-06T22:46:35.057Z,27.23
2018-09-06T22:49:03.534Z,26.80
2018-09-06T22:51:31.876Z,25.87
2018-09-06T22:54:00.310Z,24.13
2018-09-06T22:56:28.756Z,25.57
2018-09-06T22:58:57.160Z,22.37
2018-09-06T23:01:25.616Z,27.07
2018-09-06T23:03:54.653Z,26.10
2018-09-06T23:06:23.437Z,30.63
2018-09-06T23:08:52.158Z,25.80
2018-09-06T23:11:20.563Z,31.13
2018-09-06T23:13:48.976Z,36.57
2018-09-06T23:16:17.480Z,32.37
2018-09-06T23:18:45.909Z,34.00
2018-09-06T23:21:14.345Z,29.33
2018-09-06T23:23:42.766Z,27.57
2018-09-06T23:26:11.161Z,31.13
2018-09-06T23:28:39.561Z,30.53
2018-09-06T23:31:08.113Z,32.47
2018-09-06T23:33:36.566Z,33.13
2018-09-06T23:36:04.958Z,34.17
2018-09-06T23:38:33.361Z,35.77
2018-09-06T23:41:01.892Z,33.90
2018-09-06T23:43:30.293Z,29.53
2018-09-06T23:45:59.538Z,33.83
2018-09-06T23:48:29.148Z,36.60
2018-09-06T23:50:58.353Z,34.27
2018-09-06T23:53:27.669Z,31.50
2018-09-06T23:55:56.364Z,35.03
2018-09-06T23:58:25.109Z,31.27
